首页
METAR-TAF:

METAR-TAF

机场 :

雅西, 罗马尼亚

纬度: 47-10N, 经度: 027-38E, 海拔: 102米

当前天气观测

该预报发布于12分钟前的20:30 UTC
风速3节,风向北转西北,在西北北转东北之间变化
温度 11°C
湿度 50%
气压 996 hPa
能见度10公里或以上
1500米以下无云,无积雨云

METAR: LRIA 262030Z 34003KT 320V030 CAVOK 11/01 Q0996

时间: 22:42 (20:42 UTC)

预报

该预报发布于3小时和42分钟前的17:00 UTC
预报有效从26日的 18点(UTC)到 27日的 03点(UTC)
风速4节,风向多变
能见度10公里或以上
1500米以下无云,无积雨云
几率 30% :
短暂存在
从 26日的 23点(UTC)到 27日的 02点(UTC)
散云层高于4500英尺, 积雨云.

TAF: LRIA 261700Z 2618/2703 VRB04KT CAVOK PROB30 TEMPO 2623/2702 SCT045CB

超过4000个机场的气象观测和天气预报(METAR&TAF报告)。

可查询的气象台以黄色和红色小点在地图上表示。

将鼠标移到小点上方,可查看气象台名称。

然后点击查看天气观测和预报。

如需切换地图:点击带黑十字的绿色按钮放大地图;点击带横线的绿色按钮缩小地图;或者点击绿色箭头查看邻近地区的地图。


METAR-TAF: